KWVL/WVL METAR and TAF weather

Enter ICAO airport designator
Station Type Date Time Source
KWVL METAR 2019/08/24 08:56 UTC NOAA

KWVL 240856Z AUTO 34006KT 10SM CLR 13/10 A3006 RMK AO2 SLP205 T01280100 51016


Station Type Date Time Source
KWVL Decoded METAR 2019/08/24 08:56 UTC NOAA

Station name not available
Aug 24, 2019 - 04:56 AM EDT / 2019.08.24 0856 UTC
Wind: from the NNW (340 degrees) at 7 MPH (6 KT):0
Visibility: 10 mile(s):0
Sky conditions: clear
Temperature: 55.0 F (12.8 C)
Dew Point: 50.0 F (10.0 C)
Relative Humidity: 83%
Pressure (altimeter): 30.06 in. Hg (1017 hPa)
Pressure tendency: 0.05 inches (1.6 hPa) higher than three hours ago
ob: KWVL 240856Z AUTO 34006KT 10SM CLR 13/10 A3006 RMK AO2 SLP205 T01280100 51016
cycle: 9

Station Type Date Time Source
KWVL TAF UTC NOAA

Error!

Example: see airport list